Matlock, Washington
Current Conditions -  °F | °C
As of 1:17 AM on Wednesday 22 Oct 2014 (Local Time) from KSHN Reporting Station
Light Rain Light Rain  
Wind Chill: 56°   Ceiling: 2700
Heat Index: 56°   Visibility: 10mi
Dew Point: 48°   Wind: 16mph
Humidity: 75%   Direction: 150°SSE
Pressure: 29.67"   Gusts: 35mph
Location:  47.24°N, 123.41°W
Report Text: KSHN 220817Z AUTO 15014G30KT 10SM -RA BKN027 BKN033 OVC040 13/09 A2967 RMK AO2 PK WND 15030/0811 P0000 T01330089 TSNO
Loading
Personal Weather Stations






























Interactive Weather Map
Tropical Storm Tracking
New forecast layout! Learn more

10-Day Weather Forecast

Advertisements
Track Severe Weather on mobile